sensor_id;sensor_type;location;lat;lon;timestamp;temperature;humidity
7384;DHT22;3733;47.994;8.820;2023-05-07T00:00:34;12.60;99.90
7384;DHT22;3733;47.994;8.820;2023-05-07T00:02:59;12.60;99.90
7384;DHT22;3733;47.994;8.820;2023-05-07T00:05:26;12.50;99.90
7384;DHT22;3733;47.994;8.820;2023-05-07T00:07:52;12.50;99.90
7384;DHT22;3733;47.994;8.820;2023-05-07T00:10:18;12.50;99.90
7384;DHT22;3733;47.994;8.820;2023-05-07T00:12:44;12.40;99.90
7384;DHT22;3733;47.994;8.820;2023-05-07T00:15:10;12.40;99.90
7384;DHT22;3733;47.994;8.820;2023-05-07T00:17:36;12.40;99.90
7384;DHT22;3733;47.994;8.820;2023-05-07T00:20:03;12.30;99.90
7384;DHT22;3733;47.994;8.820;2023-05-07T00:22:30;12.30;99.90
7384;DHT22;3733;47.994;8.820;2023-05-07T00:24:56;12.30;99.90
7384;DHT22;3733;47.994;8.820;2023-05-07T00:27:22;12.30;99.90
7384;DHT22;3733;47.994;8.820;2023-05-07T00:29:48;12.30;99.90
7384;DHT22;3733;47.994;8.820;2023-05-07T00:32:13;12.30;99.90
7384;DHT22;3733;47.994;8.820;2023-05-07T00:34:39;12.20;99.90
7384;DHT22;3733;47.994;8.820;2023-05-07T00:37:05;12.30;99.90
7384;DHT22;3733;47.994;8.820;2023-05-07T00:39:33;12.20;99.90
7384;DHT22;3733;47.994;8.820;2023-05-07T00:41:58;12.20;99.90
7384;DHT22;3733;47.994;8.820;2023-05-07T00:44:24;12.20;99.90
7384;DHT22;3733;47.994;8.820;2023-05-07T00:46:50;12.20;99.90
7384;DHT22;3733;47.994;8.820;2023-05-07T00:49:16;12.20;99.90
7384;DHT22;3733;47.994;8.820;2023-05-07T00:51:42;12.20;99.90
7384;DHT22;3733;47.994;8.820;2023-05-07T00:54:08;12.20;99.90
7384;DHT22;3733;47.994;8.820;2023-05-07T00:56:34;12.10;99.90
7384;DHT22;3733;47.994;8.820;2023-05-07T00:59:01;12.10;99.90
7384;DHT22;3733;47.994;8.820;2023-05-07T01:01:28;12.10;99.90
7384;DHT22;3733;47.994;8.820;2023-05-07T01:03:53;12.10;99.90
7384;DHT22;3733;47.994;8.820;2023-05-07T01:06:20;12.00;99.90
7384;DHT22;3733;47.994;8.820;2023-05-07T01:08:47;12.00;99.90
7384;DHT22;3733;47.994;8.820;2023-05-07T01:11:16;12.00;99.90
7384;DHT22;3733;47.994;8.820;2023-05-07T01:13:42;12.00;99.90
7384;DHT22;3733;47.994;8.820;2023-05-07T01:16:09;11.90;99.90
7384;DHT22;3733;47.994;8.820;2023-05-07T01:18:35;11.90;99.90
7384;DHT22;3733;47.994;8.820;2023-05-07T01:21:01;11.90;99.90
7384;DHT22;3733;47.994;8.820;2023-05-07T01:23:29;11.90;99.90
7384;DHT22;3733;47.994;8.820;2023-05-07T01:25:55;11.90;99.90
7384;DHT22;3733;47.994;8.820;2023-05-07T01:28:21;11.80;99.90
7384;DHT22;3733;47.994;8.820;2023-05-07T01:30:53;11.80;99.90
7384;DHT22;3733;47.994;8.820;2023-05-07T01:33:21;11.80;99.90
7384;DHT22;3733;47.994;8.820;2023-05-07T01:35:50;11.80;99.90
7384;DHT22;3733;47.994;8.820;2023-05-07T01:38:18;11.80;99.90
7384;DHT22;3733;47.994;8.820;2023-05-07T01:40:44;11.80;99.90
7384;DHT22;3733;47.994;8.820;2023-05-07T01:43:10;11.70;99.90
7384;DHT22;3733;47.994;8.820;2023-05-07T01:45:36;11.70;99.90
7384;DHT22;3733;47.994;8.820;2023-05-07T01:48:03;11.70;99.90
7384;DHT22;3733;47.994;8.820;2023-05-07T01:50:30;11.70;99.90
7384;DHT22;3733;47.994;8.820;2023-05-07T01:52:57;11.70;99.90
7384;DHT22;3733;47.994;8.820;2023-05-07T01:55:23;11.70;99.90
7384;DHT22;3733;47.994;8.820;2023-05-07T01:57:49;11.70;99.90
7384;DHT22;3733;47.994;8.820;2023-05-07T02:00:15;11.70;99.90
7384;DHT22;3733;47.994;8.820;2023-05-07T02:02:40;11.60;99.90
7384;DHT22;3733;47.994;8.820;2023-05-07T02:05:06;11.60;99.90
7384;DHT22;3733;47.994;8.820;2023-05-07T02:07:32;11.60;99.90
7384;DHT22;3733;47.994;8.820;2023-05-07T02:09:57;11.60;99.90
7384;DHT22;3733;47.994;8.820;2023-05-07T02:12:23;11.60;99.90
7384;DHT22;3733;47.994;8.820;2023-05-07T02:14:49;11.50;99.90
7384;DHT22;3733;47.994;8.820;2023-05-07T02:17:15;11.50;99.90
7384;DHT22;3733;47.994;8.820;2023-05-07T02:19:40;11.50;99.90
7384;DHT22;3733;47.994;8.820;2023-05-07T02:22:07;11.50;99.90
7384;DHT22;3733;47.994;8.820;2023-05-07T02:24:32;11.40;99.90
7384;DHT22;3733;47.994;8.820;2023-05-07T02:26:58;11.40;99.90
7384;DHT22;3733;47.994;8.820;2023-05-07T02:29:23;11.40;99.90
7384;DHT22;3733;47.994;8.820;2023-05-07T02:31:49;11.40;99.90
7384;DHT22;3733;47.994;8.820;2023-05-07T02:34:16;11.30;99.90
7384;DHT22;3733;47.994;8.820;2023-05-07T02:36:42;11.30;99.90
7384;DHT22;3733;47.994;8.820;2023-05-07T02:39:08;11.30;99.90
7384;DHT22;3733;47.994;8.820;2023-05-07T02:41:34;11.20;99.90
7384;DHT22;3733;47.994;8.820;2023-05-07T02:43:59;11.20;99.90
7384;DHT22;3733;47.994;8.820;2023-05-07T02:46:25;11.10;99.90
7384;DHT22;3733;47.994;8.820;2023-05-07T02:48:51;11.10;99.90
7384;DHT22;3733;47.994;8.820;2023-05-07T02:51:20;11.10;99.90
7384;DHT22;3733;47.994;8.820;2023-05-07T02:53:46;11.00;99.90
7384;DHT22;3733;47.994;8.820;2023-05-07T02:56:11;11.00;99.90
7384;DHT22;3733;47.994;8.820;2023-05-07T02:58:37;11.00;99.90
7384;DHT22;3733;47.994;8.820;2023-05-07T03:01:05;10.90;99.90
7384;DHT22;3733;47.994;8.820;2023-05-07T03:03:31;10.90;99.90
7384;DHT22;3733;47.994;8.820;2023-05-07T03:05:56;10.90;99.90
7384;DHT22;3733;47.994;8.820;2023-05-07T03:08:22;10.90;99.90
7384;DHT22;3733;47.994;8.820;2023-05-07T03:10:48;10.90;99.90
7384;DHT22;3733;47.994;8.820;2023-05-07T03:13:13;10.90;99.90
7384;DHT22;3733;47.994;8.820;2023-05-07T03:15:39;10.80;99.90
7384;DHT22;3733;47.994;8.820;2023-05-07T03:18:05;10.80;99.90
7384;DHT22;3733;47.994;8.820;2023-05-07T03:20:30;10.80;99.90
7384;DHT22;3733;47.994;8.820;2023-05-07T03:22:56;10.70;99.90
7384;DHT22;3733;47.994;8.820;2023-05-07T03:25:22;10.70;99.90
7384;DHT22;3733;47.994;8.820;2023-05-07T03:27:47;10.70;99.90
7384;DHT22;3733;47.994;8.820;2023-05-07T03:30:13;10.60;99.90
7384;DHT22;3733;47.994;8.820;2023-05-07T03:32:39;10.60;99.90
7384;DHT22;3733;47.994;8.820;2023-05-07T03:35:05;10.60;99.90
7384;DHT22;3733;47.994;8.820;2023-05-07T03:37:31;10.50;99.90
7384;DHT22;3733;47.994;8.820;2023-05-07T03:39:56;10.50;99.90
7384;DHT22;3733;47.994;8.820;2023-05-07T03:42:22;10.50;99.90
7384;DHT22;3733;47.994;8.820;2023-05-07T03:44:47;10.50;99.90
7384;DHT22;3733;47.994;8.820;2023-05-07T03:47:13;10.40;99.90
7384;DHT22;3733;47.994;8.820;2023-05-07T03:49:39;10.50;99.90
7384;DHT22;3733;47.994;8.820;2023-05-07T03:52:05;10.40;99.90
7384;DHT22;3733;47.994;8.820;2023-05-07T03:54:31;10.40;99.90
7384;DHT22;3733;47.994;8.820;2023-05-07T03:56:57;10.40;99.90
7384;DHT22;3733;47.994;8.820;2023-05-07T03:59:23;10.30;99.90
7384;DHT22;3733;47.994;8.820;2023-05-07T04:01:48;10.30;99.90
7384;DHT22;3733;47.994;8.820;2023-05-07T04:04:14;10.30;99.90
7384;DHT22;3733;47.994;8.820;2023-05-07T04:06:40;10.30;99.90
7384;DHT22;3733;47.994;8.820;2023-05-07T04:09:05;10.30;99.90
7384;DHT22;3733;47.994;8.820;2023-05-07T04:11:31;10.30;99.90
7384;DHT22;3733;47.994;8.820;2023-05-07T04:13:57;10.30;99.90
7384;DHT22;3733;47.994;8.820;2023-05-07T04:16:23;10.30;99.90
7384;DHT22;3733;47.994;8.820;2023-05-07T04:18:48;10.30;99.90
7384;DHT22;3733;47.994;8.820;2023-05-07T04:21:16;10.30;99.90
7384;DHT22;3733;47.994;8.820;2023-05-07T04:23:41;10.30;99.90
7384;DHT22;3733;47.994;8.820;2023-05-07T04:26:07;10.30;99.90
7384;DHT22;3733;47.994;8.820;2023-05-07T04:28:34;10.20;99.90
7384;DHT22;3733;47.994;8.820;2023-05-07T04:31:00;10.20;99.90
7384;DHT22;3733;47.994;8.820;2023-05-07T04:33:26;10.20;99.90
7384;DHT22;3733;47.994;8.820;2023-05-07T04:35:51;10.20;99.90
7384;DHT22;3733;47.994;8.820;2023-05-07T04:38:17;10.30;99.90
7384;DHT22;3733;47.994;8.820;2023-05-07T04:40:44;10.30;99.90
7384;DHT22;3733;47.994;8.820;2023-05-07T04:43:10;10.30;99.90
7384;DHT22;3733;47.994;8.820;2023-05-07T04:45:36;10.30;99.90
7384;DHT22;3733;47.994;8.820;2023-05-07T04:48:02;10.30;99.90
7384;DHT22;3733;47.994;8.820;2023-05-07T04:50:27;10.40;99.90
7384;DHT22;3733;47.994;8.820;2023-05-07T04:52:53;10.40;99.90
7384;DHT22;3733;47.994;8.820;2023-05-07T04:55:18;10.40;99.90
7384;DHT22;3733;47.994;8.820;2023-05-07T04:57:44;10.40;99.90
7384;DHT22;3733;47.994;8.820;2023-05-07T05:00:10;10.50;99.90
7384;DHT22;3733;47.994;8.820;2023-05-07T05:02:39;10.40;99.90
7384;DHT22;3733;47.994;8.820;2023-05-07T05:05:05;10.40;99.90
7384;DHT22;3733;47.994;8.820;2023-05-07T05:07:31;10.50;99.90
7384;DHT22;3733;47.994;8.820;2023-05-07T05:09:56;10.50;99.90
7384;DHT22;3733;47.994;8.820;2023-05-07T05:12:23;10.50;99.90
7384;DHT22;3733;47.994;8.820;2023-05-07T05:14:48;10.50;99.90
7384;DHT22;3733;47.994;8.820;2023-05-07T05:17:14;10.50;99.90
7384;DHT22;3733;47.994;8.820;2023-05-07T05:19:39;10.60;99.90
7384;DHT22;3733;47.994;8.820;2023-05-07T05:22:05;10.60;99.90
7384;DHT22;3733;47.994;8.820;2023-05-07T05:24:31;10.60;99.90
7384;DHT22;3733;47.994;8.820;2023-05-07T05:26:57;10.60;99.90
7384;DHT22;3733;47.994;8.820;2023-05-07T05:29:22;10.60;99.90
7384;DHT22;3733;47.994;8.820;2023-05-07T05:31:48;10.70;99.90
7384;DHT22;3733;47.994;8.820;2023-05-07T05:34:14;10.80;99.90
7384;DHT22;3733;47.994;8.820;2023-05-07T05:36:39;10.90;99.90
7384;DHT22;3733;47.994;8.820;2023-05-07T05:39:05;11.00;99.90
7384;DHT22;3733;47.994;8.820;2023-05-07T05:41:31;11.10;99.90
7384;DHT22;3733;47.994;8.820;2023-05-07T05:43:57;11.30;99.90
7384;DHT22;3733;47.994;8.820;2023-05-07T05:46:22;11.40;99.90
7384;DHT22;3733;47.994;8.820;2023-05-07T05:48:48;11.50;99.90
7384;DHT22;3733;47.994;8.820;2023-05-07T05:51:13;11.60;99.90
7384;DHT22;3733;47.994;8.820;2023-05-07T05:53:39;11.70;99.90
7384;DHT22;3733;47.994;8.820;2023-05-07T05:56:05;11.90;99.90
7384;DHT22;3733;47.994;8.820;2023-05-07T05:58:31;12.00;99.90
7384;DHT22;3733;47.994;8.820;2023-05-07T06:00:56;12.00;99.90
7384;DHT22;3733;47.994;8.820;2023-05-07T06:03:23;12.10;99.90
7384;DHT22;3733;47.994;8.820;2023-05-07T06:05:49;12.20;99.90
7384;DHT22;3733;47.994;8.820;2023-05-07T06:08:14;12.40;99.90
7384;DHT22;3733;47.994;8.820;2023-05-07T06:10:40;12.50;99.90
7384;DHT22;3733;47.994;8.820;2023-05-07T06:13:06;12.60;99.90
7384;DHT22;3733;47.994;8.820;2023-05-07T06:15:31;12.70;99.90
7384;DHT22;3733;47.994;8.820;2023-05-07T06:17:57;12.70;99.90
7384;DHT22;3733;47.994;8.820;2023-05-07T06:20:23;12.80;99.90
7384;DHT22;3733;47.994;8.820;2023-05-07T06:22:48;12.90;99.90
7384;DHT22;3733;47.994;8.820;2023-05-07T06:25:14;12.90;99.90
7384;DHT22;3733;47.994;8.820;2023-05-07T06:27:40;12.90;99.90
7384;DHT22;3733;47.994;8.820;2023-05-07T06:30:07;12.90;99.90
7384;DHT22;3733;47.994;8.820;2023-05-07T06:32:32;13.00;99.90
7384;DHT22;3733;47.994;8.820;2023-05-07T06:34:58;13.10;99.90
7384;DHT22;3733;47.994;8.820;2023-05-07T06:37:23;13.10;99.90
7384;DHT22;3733;47.994;8.820;2023-05-07T06:39:49;13.20;99.90
7384;DHT22;3733;47.994;8.820;2023-05-07T06:42:15;13.30;99.90
7384;DHT22;3733;47.994;8.820;2023-05-07T06:44:40;13.30;99.90
7384;DHT22;3733;47.994;8.820;2023-05-07T06:47:06;13.40;99.90
7384;DHT22;3733;47.994;8.820;2023-05-07T06:49:32;13.50;99.90
7384;DHT22;3733;47.994;8.820;2023-05-07T06:51:58;13.60;99.90
7384;DHT22;3733;47.994;8.820;2023-05-07T06:54:24;13.70;99.90
7384;DHT22;3733;47.994;8.820;2023-05-07T06:56:49;13.90;99.90
7384;DHT22;3733;47.994;8.820;2023-05-07T06:59:15;14.10;99.90
7384;DHT22;3733;47.994;8.820;2023-05-07T07:01:41;14.30;99.90
7384;DHT22;3733;47.994;8.820;2023-05-07T07:04:07;14.30;99.90
7384;DHT22;3733;47.994;8.820;2023-05-07T07:06:32;14.30;99.90
7384;DHT22;3733;47.994;8.820;2023-05-07T07:08:59;14.20;99.90
7384;DHT22;3733;47.994;8.820;2023-05-07T07:11:24;14.10;99.90
7384;DHT22;3733;47.994;8.820;2023-05-07T07:13:50;14.10;99.90
7384;DHT22;3733;47.994;8.820;2023-05-07T07:16:16;14.10;99.90
7384;DHT22;3733;47.994;8.820;2023-05-07T07:18:42;14.10;99.90
7384;DHT22;3733;47.994;8.820;2023-05-07T07:21:07;14.20;99.90
7384;DHT22;3733;47.994;8.820;2023-05-07T07:23:33;14.20;99.90
7384;DHT22;3733;47.994;8.820;2023-05-07T07:25:58;14.40;99.90
7384;DHT22;3733;47.994;8.820;2023-05-07T07:28:24;14.60;99.90
7384;DHT22;3733;47.994;8.820;2023-05-07T07:30:50;14.80;99.90
7384;DHT22;3733;47.994;8.820;2023-05-07T07:33:15;15.00;99.90
7384;DHT22;3733;47.994;8.820;2023-05-07T07:35:42;15.20;99.90
7384;DHT22;3733;47.994;8.820;2023-05-07T07:38:08;15.40;99.90
7384;DHT22;3733;47.994;8.820;2023-05-07T07:40:34;15.50;99.90
7384;DHT22;3733;47.994;8.820;2023-05-07T07:43:00;15.70;99.90
7384;DHT22;3733;47.994;8.820;2023-05-07T07:45:27;15.80;99.90
7384;DHT22;3733;47.994;8.820;2023-05-07T07:47:52;16.00;99.90
7384;DHT22;3733;47.994;8.820;2023-05-07T07:50:18;16.10;99.90
7384;DHT22;3733;47.994;8.820;2023-05-07T07:52:44;16.30;99.90
7384;DHT22;3733;47.994;8.820;2023-05-07T07:55:09;16.30;97.50
7384;DHT22;3733;47.994;8.820;2023-05-07T07:57:35;16.40;96.00
7384;DHT22;3733;47.994;8.820;2023-05-07T08:00:01;16.50;96.30
7384;DHT22;3733;47.994;8.820;2023-05-07T08:02:27;16.70;96.40
7384;DHT22;3733;47.994;8.820;2023-05-07T08:04:53;16.80;94.40
7384;DHT22;3733;47.994;8.820;2023-05-07T08:07:19;16.80;92.60
7384;DHT22;3733;47.994;8.820;2023-05-07T08:09:46;16.90;92.00
7384;DHT22;3733;47.994;8.820;2023-05-07T08:12:12;17.00;92.70
7384;DHT22;3733;47.994;8.820;2023-05-07T08:14:38;17.20;93.90
7384;DHT22;3733;47.994;8.820;2023-05-07T08:17:03;17.30;91.60
7384;DHT22;3733;47.994;8.820;2023-05-07T08:19:29;17.50;91.80
7384;DHT22;3733;47.994;8.820;2023-05-07T08:21:55;17.60;90.30
7384;DHT22;3733;47.994;8.820;2023-05-07T08:24:21;17.70;90.20
7384;DHT22;3733;47.994;8.820;2023-05-07T08:26:46;17.80;91.70
7384;DHT22;3733;47.994;8.820;2023-05-07T08:29:12;18.00;92.70
7384;DHT22;3733;47.994;8.820;2023-05-07T08:31:37;18.20;86.80
7384;DHT22;3733;47.994;8.820;2023-05-07T08:34:06;18.20;81.20
7384;DHT22;3733;47.994;8.820;2023-05-07T08:36:32;18.30;80.60
7384;DHT22;3733;47.994;8.820;2023-05-07T08:38:58;18.50;77.50
7384;DHT22;3733;47.994;8.820;2023-05-07T08:41:24;18.60;75.90
7384;DHT22;3733;47.994;8.820;2023-05-07T08:43:51;18.70;75.00
7384;DHT22;3733;47.994;8.820;2023-05-07T08:46:18;18.70;70.50
7384;DHT22;3733;47.994;8.820;2023-05-07T08:48:47;18.80;72.10
7384;DHT22;3733;47.994;8.820;2023-05-07T08:51:15;18.80;72.20
7384;DHT22;3733;47.994;8.820;2023-05-07T08:53:41;18.80;70.60
7384;DHT22;3733;47.994;8.820;2023-05-07T08:56:08;18.90;69.50
7384;DHT22;3733;47.994;8.820;2023-05-07T08:58:34;19.00;67.70
7384;DHT22;3733;47.994;8.820;2023-05-07T09:01:13;19.00;67.10
7384;DHT22;3733;47.994;8.820;2023-05-07T09:03:40;19.10;66.10
7384;DHT22;3733;47.994;8.820;2023-05-07T09:06:06;19.10;65.10
7384;DHT22;3733;47.994;8.820;2023-05-07T09:08:35;19.30;64.30
7384;DHT22;3733;47.994;8.820;2023-05-07T09:11:02;19.40;63.90
7384;DHT22;3733;47.994;8.820;2023-05-07T09:13:28;19.50;63.90
7384;DHT22;3733;47.994;8.820;2023-05-07T09:15:54;19.60;62.00
7384;DHT22;3733;47.994;8.820;2023-05-07T09:18:20;19.70;61.00
7384;DHT22;3733;47.994;8.820;2023-05-07T09:20:46;19.80;60.10
7384;DHT22;3733;47.994;8.820;2023-05-07T09:23:11;19.80;59.20
7384;DHT22;3733;47.994;8.820;2023-05-07T09:25:37;20.00;59.10
7384;DHT22;3733;47.994;8.820;2023-05-07T09:28:04;20.00;59.00
7384;DHT22;3733;47.994;8.820;2023-05-07T09:30:31;20.20;59.00
7384;DHT22;3733;47.994;8.820;2023-05-07T09:33:02;20.30;58.90
7384;DHT22;3733;47.994;8.820;2023-05-07T09:35:29;20.50;59.60
7384;DHT22;3733;47.994;8.820;2023-05-07T09:37:59;20.60;57.70
7384;DHT22;3733;47.994;8.820;2023-05-07T09:40:29;20.70;58.00
7384;DHT22;3733;47.994;8.820;2023-05-07T09:42:56;20.80;57.80
7384;DHT22;3733;47.994;8.820;2023-05-07T09:45:31;20.90;57.30
7384;DHT22;3733;47.994;8.820;2023-05-07T09:47:58;21.00;56.80
7384;DHT22;3733;47.994;8.820;2023-05-07T09:50:29;20.80;56.20
7384;DHT22;3733;47.994;8.820;2023-05-07T09:52:56;20.70;57.30
7384;DHT22;3733;47.994;8.820;2023-05-07T09:55:22;20.70;58.30
7384;DHT22;3733;47.994;8.820;2023-05-07T09:57:52;20.70;58.70
7384;DHT22;3733;47.994;8.820;2023-05-07T10:00:22;20.70;58.00
7384;DHT22;3733;47.994;8.820;2023-05-07T10:02:50;20.80;58.00
7384;DHT22;3733;47.994;8.820;2023-05-07T10:05:18;20.80;58.40
7384;DHT22;3733;47.994;8.820;2023-05-07T10:07:46;20.90;58.60
7384;DHT22;3733;47.994;8.820;2023-05-07T10:10:12;21.00;58.40
7384;DHT22;3733;47.994;8.820;2023-05-07T10:12:38;21.10;57.00
7384;DHT22;3733;47.994;8.820;2023-05-07T10:15:07;21.20;56.90
7384;DHT22;3733;47.994;8.820;2023-05-07T10:17:38;21.30;57.00
7384;DHT22;3733;47.994;8.820;2023-05-07T10:20:05;21.40;56.30
7384;DHT22;3733;47.994;8.820;2023-05-07T10:22:51;21.30;55.30
7384;DHT22;3733;47.994;8.820;2023-05-07T10:25:27;21.30;56.90
7384;DHT22;3733;47.994;8.820;2023-05-07T10:27:55;21.30;57.10
7384;DHT22;3733;47.994;8.820;2023-05-07T10:33:09;21.20;55.70
7384;DHT22;3733;47.994;8.820;2023-05-07T10:35:43;21.00;56.30
7384;DHT22;3733;47.994;8.820;2023-05-07T10:38:09;21.00;57.10
7384;DHT22;3733;47.994;8.820;2023-05-07T10:40:35;21.10;57.30
7384;DHT22;3733;47.994;8.820;2023-05-07T10:43:03;21.30;57.10
7384;DHT22;3733;47.994;8.820;2023-05-07T10:45:32;21.40;56.80
7384;DHT22;3733;47.994;8.820;2023-05-07T10:48:11;21.60;56.80
7384;DHT22;3733;47.994;8.820;2023-05-07T10:50:39;21.70;56.40
7384;DHT22;3733;47.994;8.820;2023-05-07T10:55:47;21.90;56.30
7384;DHT22;3733;47.994;8.820;2023-05-07T10:58:25;22.00;56.10
7384;DHT22;3733;47.994;8.820;2023-05-07T11:00:59;22.10;56.70
7384;DHT22;3733;47.994;8.820;2023-05-07T11:03:26;22.20;55.30
7384;DHT22;3733;47.994;8.820;2023-05-07T11:06:14;22.20;55.30
7384;DHT22;3733;47.994;8.820;2023-05-07T11:11:17;22.30;55.30
7384;DHT22;3733;47.994;8.820;2023-05-07T11:13:47;22.20;53.30
7384;DHT22;3733;47.994;8.820;2023-05-07T11:16:23;22.10;53.20
7384;DHT22;3733;47.994;8.820;2023-05-07T11:18:51;22.00;53.50
7384;DHT22;3733;47.994;8.820;2023-05-07T11:21:36;21.80;53.60
7384;DHT22;3733;47.994;8.820;2023-05-07T11:24:03;21.60;53.80
7384;DHT22;3733;47.994;8.820;2023-05-07T11:26:49;21.40;54.70
7384;DHT22;3733;47.994;8.820;2023-05-07T11:29:22;21.20;55.60
7384;DHT22;3733;47.994;8.820;2023-05-07T11:31:52;21.00;56.50
7384;DHT22;3733;47.994;8.820;2023-05-07T11:34:26;20.90;57.40
7384;DHT22;3733;47.994;8.820;2023-05-07T11:36:52;20.80;58.00
7384;DHT22;3733;47.994;8.820;2023-05-07T11:39:25;20.70;58.00
7384;DHT22;3733;47.994;8.820;2023-05-07T11:41:51;20.70;58.50
7384;DHT22;3733;47.994;8.820;2023-05-07T11:44:16;20.90;59.10
7384;DHT22;3733;47.994;8.820;2023-05-07T11:46:45;21.00;58.80
7384;DHT22;3733;47.994;8.820;2023-05-07T11:49:11;21.10;59.10
7384;DHT22;3733;47.994;8.820;2023-05-07T11:51:37;21.20;59.10
7384;DHT22;3733;47.994;8.820;2023-05-07T11:54:04;21.20;58.40
7384;DHT22;3733;47.994;8.820;2023-05-07T11:56:34;21.10;58.50
7384;DHT22;3733;47.994;8.820;2023-05-07T11:59:00;21.00;58.30
7384;DHT22;3733;47.994;8.820;2023-05-07T12:01:26;20.90;58.50
7384;DHT22;3733;47.994;8.820;2023-05-07T12:03:52;20.80;58.90
7384;DHT22;3733;47.994;8.820;2023-05-07T12:06:19;20.60;59.20
7384;DHT22;3733;47.994;8.820;2023-05-07T12:08:45;20.50;58.90
7384;DHT22;3733;47.994;8.820;2023-05-07T12:11:22;20.30;58.80
7384;DHT22;3733;47.994;8.820;2023-05-07T12:13:49;20.10;59.10
7384;DHT22;3733;47.994;8.820;2023-05-07T12:16:14;19.90;59.40
7384;DHT22;3733;47.994;8.820;2023-05-07T12:18:40;19.80;60.00
7384;DHT22;3733;47.994;8.820;2023-05-07T12:21:07;19.60;60.80
7384;DHT22;3733;47.994;8.820;2023-05-07T12:23:34;19.50;61.50
7384;DHT22;3733;47.994;8.820;2023-05-07T12:26:00;19.40;62.60
7384;DHT22;3733;47.994;8.820;2023-05-07T12:28:26;19.20;63.10
7384;DHT22;3733;47.994;8.820;2023-05-07T12:30:52;19.00;63.20
7384;DHT22;3733;47.994;8.820;2023-05-07T12:33:23;18.80;64.10
7384;DHT22;3733;47.994;8.820;2023-05-07T12:35:49;18.60;66.50
7384;DHT22;3733;47.994;8.820;2023-05-07T12:38:16;18.30;69.60
7384;DHT22;3733;47.994;8.820;2023-05-07T12:40:44;18.00;77.20
7384;DHT22;3733;47.994;8.820;2023-05-07T12:43:27;17.70;84.50
7384;DHT22;3733;47.994;8.820;2023-05-07T12:45:57;17.30;93.70
7384;DHT22;3733;47.994;8.820;2023-05-07T12:48:24;17.00;99.90
7384;DHT22;3733;47.994;8.820;2023-05-07T12:50:56;16.80;99.90
7384;DHT22;3733;47.994;8.820;2023-05-07T12:53:25;16.70;99.90
7384;DHT22;3733;47.994;8.820;2023-05-07T12:55:53;16.60;99.90
7384;DHT22;3733;47.994;8.820;2023-05-07T12:58:24;16.60;99.90
7384;DHT22;3733;47.994;8.820;2023-05-07T13:00:51;16.90;99.90
7384;DHT22;3733;47.994;8.820;2023-05-07T13:03:36;17.40;99.90
7384;DHT22;3733;47.994;8.820;2023-05-07T13:06:07;18.00;99.90
7384;DHT22;3733;47.994;8.820;2023-05-07T13:08:37;18.30;99.90
7384;DHT22;3733;47.994;8.820;2023-05-07T13:11:06;18.50;99.90
7384;DHT22;3733;47.994;8.820;2023-05-07T13:13:36;18.50;99.90
7384;DHT22;3733;47.994;8.820;2023-05-07T13:16:03;18.40;95.30
7384;DHT22;3733;47.994;8.820;2023-05-07T13:18:30;18.20;99.90
7384;DHT22;3733;47.994;8.820;2023-05-07T13:20:56;18.00;99.90
7384;DHT22;3733;47.994;8.820;2023-05-07T13:23:22;17.90;99.90
7384;DHT22;3733;47.994;8.820;2023-05-07T13:25:48;17.70;98.60
7384;DHT22;3733;47.994;8.820;2023-05-07T13:28:15;17.60;99.90
7384;DHT22;3733;47.994;8.820;2023-05-07T13:30:41;17.60;99.90
7384;DHT22;3733;47.994;8.820;2023-05-07T13:33:07;17.60;99.90
7384;DHT22;3733;47.994;8.820;2023-05-07T13:35:33;17.60;99.90
7384;DHT22;3733;47.994;8.820;2023-05-07T13:37:59;17.60;99.90
7384;DHT22;3733;47.994;8.820;2023-05-07T13:40:25;17.50;99.90
7384;DHT22;3733;47.994;8.820;2023-05-07T13:42:51;17.50;99.90
7384;DHT22;3733;47.994;8.820;2023-05-07T13:45:20;17.60;99.90
7384;DHT22;3733;47.994;8.820;2023-05-07T13:47:46;17.60;99.90
7384;DHT22;3733;47.994;8.820;2023-05-07T13:50:12;17.70;99.90
7384;DHT22;3733;47.994;8.820;2023-05-07T13:52:42;17.80;99.90
7384;DHT22;3733;47.994;8.820;2023-05-07T13:55:09;17.90;99.90
7384;DHT22;3733;47.994;8.820;2023-05-07T13:57:36;17.90;99.90
7384;DHT22;3733;47.994;8.820;2023-05-07T14:00:03;18.00;99.90
7384;DHT22;3733;47.994;8.820;2023-05-07T14:02:30;18.10;99.90
7384;DHT22;3733;47.994;8.820;2023-05-07T14:04:56;18.30;99.90
7384;DHT22;3733;47.994;8.820;2023-05-07T14:07:22;18.40;99.90
7384;DHT22;3733;47.994;8.820;2023-05-07T14:09:47;18.40;99.90
7384;DHT22;3733;47.994;8.820;2023-05-07T14:12:13;18.40;99.90
7384;DHT22;3733;47.994;8.820;2023-05-07T14:14:38;18.40;99.90
7384;DHT22;3733;47.994;8.820;2023-05-07T14:17:04;18.40;99.90
7384;DHT22;3733;47.994;8.820;2023-05-07T14:19:29;18.50;99.90
7384;DHT22;3733;47.994;8.820;2023-05-07T14:21:55;18.60;99.90
7384;DHT22;3733;47.994;8.820;2023-05-07T14:24:21;18.70;99.90
7384;DHT22;3733;47.994;8.820;2023-05-07T14:26:49;18.70;99.90
7384;DHT22;3733;47.994;8.820;2023-05-07T14:29:16;18.70;98.10
7384;DHT22;3733;47.994;8.820;2023-05-07T14:31:44;18.70;99.90
7384;DHT22;3733;47.994;8.820;2023-05-07T14:34:10;18.60;93.40
7384;DHT22;3733;47.994;8.820;2023-05-07T14:36:36;18.50;97.70
7384;DHT22;3733;47.994;8.820;2023-05-07T14:39:03;18.40;97.00
7384;DHT22;3733;47.994;8.820;2023-05-07T14:41:29;18.30;95.70
7384;DHT22;3733;47.994;8.820;2023-05-07T14:43:55;18.10;98.30
7384;DHT22;3733;47.994;8.820;2023-05-07T14:46:20;18.00;99.40
7384;DHT22;3733;47.994;8.820;2023-05-07T14:48:46;17.90;99.90
7384;DHT22;3733;47.994;8.820;2023-05-07T14:51:12;17.80;99.90
7384;DHT22;3733;47.994;8.820;2023-05-07T14:53:38;17.70;99.90
7384;DHT22;3733;47.994;8.820;2023-05-07T14:56:05;17.70;99.90
7384;DHT22;3733;47.994;8.820;2023-05-07T14:58:31;17.60;99.90
7384;DHT22;3733;47.994;8.820;2023-05-07T15:00:57;17.50;99.90
7384;DHT22;3733;47.994;8.820;2023-05-07T15:03:22;17.30;99.90
7384;DHT22;3733;47.994;8.820;2023-05-07T15:05:48;17.30;99.90
7384;DHT22;3733;47.994;8.820;2023-05-07T15:08:17;17.20;99.90
7384;DHT22;3733;47.994;8.820;2023-05-07T15:10:42;17.20;99.90
7384;DHT22;3733;47.994;8.820;2023-05-07T15:13:10;17.10;99.90
7384;DHT22;3733;47.994;8.820;2023-05-07T15:15:36;17.10;99.90
7384;DHT22;3733;47.994;8.820;2023-05-07T15:18:02;17.10;99.90
7384;DHT22;3733;47.994;8.820;2023-05-07T15:20:28;17.20;99.90
7384;DHT22;3733;47.994;8.820;2023-05-07T15:22:54;17.30;99.40
7384;DHT22;3733;47.994;8.820;2023-05-07T15:25:19;17.60;96.50
7384;DHT22;3733;47.994;8.820;2023-05-07T15:27:46;17.90;95.60
7384;DHT22;3733;47.994;8.820;2023-05-07T15:30:12;18.00;88.70
7384;DHT22;3733;47.994;8.820;2023-05-07T15:32:38;18.20;91.40
7384;DHT22;3733;47.994;8.820;2023-05-07T15:35:04;18.30;91.50
7384;DHT22;3733;47.994;8.820;2023-05-07T15:37:31;18.30;92.40
7384;DHT22;3733;47.994;8.820;2023-05-07T15:39:56;18.20;91.70
7384;DHT22;3733;47.994;8.820;2023-05-07T15:42:22;18.10;91.80
7384;DHT22;3733;47.994;8.820;2023-05-07T15:44:48;18.00;92.90
7384;DHT22;3733;47.994;8.820;2023-05-07T15:47:14;17.90;93.50
7384;DHT22;3733;47.994;8.820;2023-05-07T15:49:41;17.80;94.80
7384;DHT22;3733;47.994;8.820;2023-05-07T15:52:06;17.70;92.60
7384;DHT22;3733;47.994;8.820;2023-05-07T15:54:32;17.60;96.10
7384;DHT22;3733;47.994;8.820;2023-05-07T15:56:57;17.50;96.80
7384;DHT22;3733;47.994;8.820;2023-05-07T15:59:23;17.60;99.70
7384;DHT22;3733;47.994;8.820;2023-05-07T16:01:49;17.50;99.90
7384;DHT22;3733;47.994;8.820;2023-05-07T16:04:14;17.50;99.90
7384;DHT22;3733;47.994;8.820;2023-05-07T16:06:40;17.50;99.90